Time;durP1;ratioP1;P1;durP2;ratioP2;P2;SDS_P1;SDS_P2;PMS_P1;PMS_P2;Temp;Humidity;BMP_temperature;BMP_pressure;BME280_temperature;BME280_humidity;BME280_pressure;Samples;Min_cycle;Max_cycle;Signal;HPM_P1;HPM_P2
2022/04/05 00:00:58;;;;;;;55.80;50.47;;;27.90;93.50;;;;;;5126585;28;20047;-50
2022/04/05 00:03:25;;;;;;;48.30;44.10;;;27.90;93.50;;;;;;5126832;28;20292;-58
2022/04/05 00:05:51;;;;;;;43.00;39.33;;;27.90;93.50;;;;;;5126459;28;20020;-52
2022/04/05 00:08:18;;;;;;;40.35;36.80;;;27.90;93.50;;;;;;5126930;28;20091;-54
2022/04/05 00:10:44;;;;;;;37.67;34.08;;;27.90;93.50;;;;;;5126271;28;20030;-52
2022/04/05 00:13:11;;;;;;;35.03;32.08;;;27.90;93.40;;;;;;5126376;28;20027;-49
2022/04/05 00:15:38;;;;;;;34.03;30.85;;;27.90;93.40;;;;;;5126333;28;20131;-57
2022/04/05 00:18:04;;;;;;;31.90;29.20;;;27.90;93.40;;;;;;5126634;28;20019;-51
2022/04/05 00:20:31;;;;;;;29.73;27.10;;;27.90;93.30;;;;;;5126242;28;20023;-49
2022/04/05 00:22:58;;;;;;;32.92;29.67;;;27.90;93.30;;;;;;5126525;28;20031;-59
2022/04/05 00:25:25;;;;;;;31.05;27.88;;;27.80;93.30;;;;;;5125886;28;20019;-50
2022/04/05 00:27:52;;;;;;;30.25;27.55;;;27.80;93.30;;;;;;5126414;28;20028;-54
2022/04/05 00:30:20;;;;;;;30.60;27.55;;;27.90;93.30;;;;;;5125995;28;20020;-53
2022/04/05 00:32:47;;;;;;;29.80;27.02;;;27.90;93.30;;;;;;5126079;28;20020;-54
2022/04/05 00:35:14;;;;;;;31.27;28.55;;;27.90;93.20;;;;;;5125917;28;20054;-52
2022/04/05 00:37:40;;;;;;;30.67;27.95;;;27.90;93.20;;;;;;5125569;28;20030;-49
2022/04/05 00:40:08;;;;;;;32.40;29.42;;;27.90;93.40;;;;;;5125704;28;20036;-53
2022/04/05 00:42:36;;;;;;;34.85;31.73;;;27.80;93.30;;;;;;5125971;28;20415;-54
2022/04/05 00:45:05;;;;;;;34.30;31.05;;;27.90;93.30;;;;;;5125959;28;20304;-50
2022/04/05 00:47:32;;;;;;;35.22;31.95;;;27.80;93.30;;;;;;5125633;28;20204;-56
2022/04/05 00:49:58;;;;;;;36.05;32.75;;;27.90;93.30;;;;;;5125299;28;20036;-56
2022/04/05 00:52:25;;;;;;;35.95;32.83;;;27.90;93.40;;;;;;5125803;28;20030;-51
2022/04/05 00:54:54;;;;;;;35.72;32.47;;;27.90;93.30;;;;;;5125449;28;20331;-56
2022/04/05 00:57:23;;;;;;;36.35;32.92;;;27.80;93.30;;;;;;5125306;28;20215;-49
2022/04/05 00:59:54;;;;;;;36.17;32.92;;;27.80;93.40;;;;;;5125464;28;20324;-52
2022/04/05 01:02:25;;;;;;;37.85;34.42;;;27.80;93.40;;;;;;5125466;28;20019;-55
2022/04/05 01:04:52;;;;;;;38.65;35.17;;;27.80;93.40;;;;;;5125191;28;20310;-49
2022/04/05 01:07:22;;;;;;;40.03;35.83;;;27.80;93.50;;;;;;5125297;28;20023;-53
2022/04/05 01:09:53;;;;;;;40.38;36.08;;;27.80;93.50;;;;;;5125034;28;20028;-57
2022/04/05 01:12:21;;;;;;;39.05;35.55;;;27.80;93.50;;;;;;5125234;28;20019;-53
2022/04/05 01:14:49;;;;;;;39.60;35.97;;;27.80;93.50;;;;;;5125112;28;20026;-51
2022/04/05 01:17:17;;;;;;;39.75;35.83;;;27.80;93.50;;;;;;5125103;28;20029;-56
2022/04/05 01:19:43;;;;;;;38.42;35.00;;;27.80;93.50;;;;;;5124967;28;20030;-53
2022/04/05 01:22:10;;;;;;;38.17;34.78;;;27.80;93.60;;;;;;5125038;28;20024;-51
2022/04/05 01:24:37;;;;;;;36.55;33.20;;;27.80;93.60;;;;;;5124989;28;20031;-50
2022/04/05 01:27:06;;;;;;;35.55;32.47;;;27.70;93.50;;;;;;5125028;28;20057;-57
2022/04/05 01:29:33;;;;;;;34.25;31.38;;;27.70;93.50;;;;;;5124805;28;20058;-53
2022/04/05 01:32:06;;;;;;;34.30;31.17;;;27.70;93.50;;;;;;5124773;28;20023;-52
2022/04/05 01:34:34;;;;;;;33.58;30.60;;;27.70;93.50;;;;;;5124831;28;20037;-47
2022/04/05 01:37:04;;;;;;;33.03;30.10;;;27.70;93.50;;;;;;5124522;28;20018;-51
2022/04/05 01:39:33;;;;;;;33.45;30.27;;;27.70;93.40;;;;;;5124895;28;20273;-51
2022/04/05 01:42:05;;;;;;;32.25;29.02;;;27.70;93.50;;;;;;5124423;28;20020;-53
2022/04/05 01:44:34;;;;;;;32.25;29.55;;;27.70;93.50;;;;;;5124325;28;20219;-54
2022/04/05 01:47:12;;;;;;;32.30;29.33;;;27.60;93.50;;;;;;5124794;28;20008;-54
2022/04/05 01:49:40;;;;;;;31.52;28.42;;;27.60;93.50;;;;;;5123480;28;20098;-54
2022/04/05 01:52:09;;;;;;;30.55;28.13;;;27.60;93.50;;;;;;5124783;28;20245;-54
2022/04/05 01:54:36;;;;;;;32.15;29.23;;;27.60;93.40;;;;;;5124566;28;20019;-56
2022/04/05 01:57:03;;;;;;;31.95;29.05;;;27.60;93.40;;;;;;5124533;28;20048;-53
2022/04/05 01:59:33;;;;;;;32.92;30.02;;;27.60;93.40;;;;;;5124403;28;20023;-52
2022/04/05 02:02:05;;;;;;;32.28;29.25;;;27.60;93.40;;;;;;5124501;28;20028;-50
2022/04/05 02:04:31;;;;;;;32.83;29.85;;;27.50;93.50;;;;;;5124206;28;20069;-57
2022/04/05 02:06:58;;;;;;;33.28;30.05;;;27.50;93.50;;;;;;5124531;28;20019;-54
2022/04/05 02:09:26;;;;;;;32.70;29.85;;;27.50;93.50;;;;;;5124012;28;20245;-55
2022/04/05 02:11:55;;;;;;;32.83;29.92;;;27.50;93.50;;;;;;5124343;28;20207;-54
2022/04/05 02:14:22;;;;;;;31.63;28.55;;;27.50;93.60;;;;;;5124298;28;20023;-50
2022/04/05 02:16:48;;;;;;;32.65;29.55;;;27.50;93.50;;;;;;5124299;28;20043;-53
2022/04/05 02:19:15;;;;;;;32.90;30.02;;;27.50;93.40;;;;;;5124071;28;20031;-50
2022/04/05 02:21:41;;;;;;;33.28;30.23;;;27.40;93.50;;;;;;5124306;28;20090;-47
2022/04/05 02:24:08;;;;;;;31.15;28.30;;;27.50;93.50;;;;;;5124155;28;20024;-55
2022/04/05 02:26:34;;;;;;;31.60;28.65;;;27.40;93.40;;;;;;5124258;28;20191;-62
2022/04/05 02:29:01;;;;;;;31.88;29.00;;;27.40;93.50;;;;;;5124275;28;20012;-49
2022/04/05 02:31:28;;;;;;;30.60;27.98;;;27.40;93.40;;;;;;5124080;28;20016;-55
2022/04/05 02:33:54;;;;;;;31.38;28.58;;;27.40;93.50;;;;;;5123922;28;20073;-53
2022/04/05 02:36:21;;;;;;;30.75;27.77;;;27.40;93.40;;;;;;5124065;28;20012;-50
2022/04/05 02:38:48;;;;;;;29.98;27.00;;;27.40;93.40;;;;;;5123988;28;20023;-52
2022/04/05 02:41:14;;;;;;;29.73;26.75;;;27.40;93.40;;;;;;5123911;28;20349;-58
2022/04/05 02:43:41;;;;;;;30.00;27.42;;;27.40;93.40;;;;;;5124299;28;20293;-55
2022/04/05 02:46:11;;;;;;;30.05;27.02;;;27.40;93.40;;;;;;5124059;28;20016;-50
2022/04/05 02:48:45;;;;;;;29.35;26.85;;;27.30;93.40;;;;;;5124280;28;20019;-51
2022/04/05 02:51:13;;;;;;;30.05;27.15;;;27.40;93.40;;;;;;5123719;28;20051;-52
2022/04/05 02:53:40;;;;;;;29.58;26.98;;;27.30;93.40;;;;;;5123855;28;20034;-53
2022/04/05 02:56:08;;;;;;;29.10;26.50;;;27.30;93.30;;;;;;5123659;28;20212;-49
2022/04/05 02:58:36;;;;;;;27.80;25.38;;;27.30;93.30;;;;;;5124230;28;20034;-48
2022/04/05 03:01:04;;;;;;;29.33;26.58;;;27.30;93.50;;;;;;5125224;28;20023;-48
2022/04/05 03:03:32;;;;;;;29.90;27.20;;;27.30;93.30;;;;;;5127895;28;20058;-54
2022/04/05 03:05:59;;;;;;;28.25;25.70;;;27.30;93.30;;;;;;5128190;28;20312;-50
2022/04/05 03:08:26;;;;;;;28.15;25.48;;;27.30;93.30;;;;;;5128008;28;20030;-59
2022/04/05 03:10:53;;;;;;;28.52;25.98;;;27.30;93.30;;;;;;5127459;28;20193;-52
2022/04/05 03:13:20;;;;;;;27.33;24.58;;;27.30;93.30;;;;;;5127884;28;20302;-52
2022/04/05 03:15:47;;;;;;;27.83;25.42;;;27.30;93.30;;;;;;5127461;28;20405;-49
2022/04/05 03:18:14;;;;;;;27.05;24.65;;;27.30;93.30;;;;;;5127674;28;20086;-56
2022/04/05 03:20:40;;;;;;;33.58;30.35;;;27.30;93.20;;;;;;5127408;28;20056;-51
2022/04/05 03:23:07;;;;;;;51.60;46.78;;;27.30;93.20;;;;;;5127981;28;20035;-55
2022/04/05 03:25:34;;;;;;;75.50;68.43;;;27.30;93.20;;;;;;5127063;28;20026;-52
2022/04/05 03:28:01;;;;;;;102.10;92.80;;;27.20;93.20;;;;;;5127169;28;20051;-53
2022/04/05 03:30:28;;;;;;;99.15;90.20;;;27.30;93.20;;;;;;5127112;28;20062;-50
2022/04/05 03:32:55;;;;;;;127.35;115.85;;;27.20;93.20;;;;;;5127225;28;20060;-51
2022/04/05 03:35:21;;;;;;;138.52;125.80;;;27.30;93.20;;;;;;5127176;28;20054;-56
2022/04/05 03:37:48;;;;;;;118.55;108.07;;;27.20;93.10;;;;;;5127454;28;20024;-54
2022/04/05 03:40:15;;;;;;;84.25;76.43;;;27.20;93.20;;;;;;5126811;28;20031;-55
2022/04/05 03:42:41;;;;;;;60.63;55.30;;;27.30;93.10;;;;;;5127169;28;20023;-54
2022/04/05 03:45:08;;;;;;;44.90;40.90;;;27.20;93.00;;;;;;5126946;28;20057;-54
2022/04/05 03:47:35;;;;;;;37.63;34.22;;;27.20;92.90;;;;;;5126829;28;20043;-53
2022/04/05 03:50:01;;;;;;;33.28;30.20;;;27.20;92.80;;;;;;5126628;28;20227;-48
2022/04/05 03:52:28;;;;;;;31.23;28.08;;;27.20;92.70;;;;;;5127010;28;20023;-51
2022/04/05 03:54:55;;;;;;;29.73;26.77;;;27.20;92.70;;;;;;5126497;28;20023;-53
2022/04/05 03:57:21;;;;;;;27.40;24.67;;;27.10;92.60;;;;;;5126949;28;20292;-50
2022/04/05 03:59:48;;;;;;;28.17;25.45;;;27.20;92.50;;;;;;5126535;28;20028;-50
2022/04/05 04:02:14;;;;;;;27.48;24.80;;;27.20;92.50;;;;;;5126611;28;20076;-50
2022/04/05 04:04:41;;;;;;;26.98;24.33;;;27.20;92.50;;;;;;5126645;28;20015;-54
2022/04/05 04:07:08;;;;;;;26.55;23.80;;;27.20;92.50;;;;;;5126693;28;20023;-55
2022/04/05 04:09:34;;;;;;;26.30;23.35;;;27.20;92.60;;;;;;5126582;28;20027;-55
2022/04/05 04:12:01;;;;;;;25.15;22.48;;;27.10;92.30;;;;;;5125883;28;20130;-51
2022/04/05 04:14:28;;;;;;;25.95;23.27;;;27.10;92.30;;;;;;5126241;28;20030;-54
2022/04/05 04:16:55;;;;;;;26.17;23.52;;;27.10;92.30;;;;;;5126405;28;20083;-53
2022/04/05 04:19:21;;;;;;;26.05;23.33;;;27.10;92.30;;;;;;5126219;28;20285;-53
2022/04/05 04:21:48;;;;;;;26.15;23.25;;;27.10;92.30;;;;;;5126357;28;20023;-51
2022/04/05 04:24:14;;;;;;;25.35;22.90;;;27.10;92.30;;;;;;5125999;28;20057;-52
2022/04/05 04:26:41;;;;;;;25.92;22.38;;;27.10;92.40;;;;;;5126292;28;20020;-55
2022/04/05 04:29:07;;;;;;;25.98;23.20;;;27.10;92.40;;;;;;5126012;28;20020;-52
2022/04/05 04:31:34;;;;;;;25.33;22.85;;;27.10;92.40;;;;;;5125925;28;20064;-49
2022/04/05 04:34:01;;;;;;;25.10;22.63;;;27.10;92.40;;;;;;5125773;28;20031;-49
2022/04/05 04:36:28;;;;;;;25.90;23.25;;;27.10;92.60;;;;;;5125795;28;20023;-46
2022/04/05 04:38:56;;;;;;;25.83;23.17;;;27.10;92.40;;;;;;5125795;28;20211;-53
2022/04/05 04:41:23;;;;;;;28.23;23.65;;;27.10;92.40;;;;;;5125609;28;20022;-48
2022/04/05 04:43:51;;;;;;;25.85;23.30;;;27.10;92.40;;;;;;5125631;28;20323;-48
2022/04/05 04:46:18;;;;;;;26.85;24.05;;;27.10;92.50;;;;;;5125765;28;20185;-52
2022/04/05 04:48:44;;;;;;;25.20;22.40;;;27.10;92.60;;;;;;5125526;28;20015;-54
2022/04/05 04:51:12;;;;;;;25.23;22.42;;;27.10;92.60;;;;;;5125448;28;20047;-51
2022/04/05 04:53:38;;;;;;;25.30;22.50;;;27.00;92.50;;;;;;5125532;28;20023;-58
2022/04/05 04:56:05;;;;;;;26.65;24.17;;;27.00;92.50;;;;;;5125391;28;20082;-50
2022/04/05 04:58:32;;;;;;;26.55;23.70;;;27.00;92.60;;;;;;5125407;28;20028;-55
2022/04/05 05:00:58;;;;;;;26.00;23.33;;;27.00;92.60;;;;;;5125385;28;20068;-48
2022/04/05 05:03:25;;;;;;;25.70;23.20;;;27.00;92.60;;;;;;5125693;28;20027;-52
2022/04/05 05:05:53;;;;;;;27.58;24.80;;;27.00;92.60;;;;;;5125417;28;20016;-51
2022/04/05 05:08:20;;;;;;;25.35;22.95;;;27.00;92.60;;;;;;5125632;28;20019;-53
2022/04/05 05:10:47;;;;;;;26.83;24.02;;;27.00;92.60;;;;;;5125198;28;20204;-54
2022/04/05 05:13:20;;;;;;;26.98;24.55;;;27.00;92.60;;;;;;5125681;28;20023;-50
2022/04/05 05:15:47;;;;;;;27.50;25.05;;;27.00;92.60;;;;;;5125132;28;20093;-50
2022/04/05 05:18:16;;;;;;;27.48;24.85;;;27.00;92.70;;;;;;5125516;28;20291;-52
2022/04/05 05:20:43;;;;;;;28.13;25.23;;;27.00;92.70;;;;;;5125049;28;20031;-52
2022/04/05 05:23:10;;;;;;;27.77;25.13;;;27.00;92.70;;;;;;5125473;28;20027;-50
2022/04/05 05:25:36;;;;;;;27.98;25.15;;;26.90;92.60;;;;;;5124892;28;20303;-48
2022/04/05 05:28:03;;;;;;;26.45;23.75;;;27.00;92.50;;;;;;5125552;28;20132;-56
2022/04/05 05:30:30;;;;;;;26.73;23.98;;;26.90;92.20;;;;;;5124988;28;20312;-48
2022/04/05 05:32:56;;;;;;;26.33;23.58;;;27.00;92.10;;;;;;5125049;28;20086;-49
2022/04/05 05:35:24;;;;;;;26.05;23.52;;;27.00;91.90;;;;;;5124899;28;20023;-52
2022/04/05 05:37:51;;;;;;;25.92;23.50;;;26.90;91.80;;;;;;5125095;28;20023;-51
2022/04/05 05:40:18;;;;;;;26.80;24.15;;;26.90;91.60;;;;;;5124573;28;20024;-57
2022/04/05 05:43:02;;;;;;;27.65;24.80;;;26.90;91.40;;;;;;5124924;28;20022;-51
2022/04/05 05:45:31;;;;;;;26.38;23.58;;;27.00;91.40;;;;;;5124591;28;20027;-52
2022/04/05 05:47:58;;;;;;;27.02;24.20;;;26.90;91.40;;;;;;5124933;28;20040;-54
2022/04/05 05:50:26;;;;;;;27.33;24.50;;;26.90;91.50;;;;;;5124559;28;20044;-54
2022/04/05 05:52:53;;;;;;;31.08;26.75;;;26.90;91.30;;;;;;5124706;28;20322;-51
2022/04/05 05:55:21;;;;;;;34.00;27.48;;;26.90;91.10;;;;;;5124453;28;20028;-48
2022/04/05 05:57:49;;;;;;;28.90;25.88;;;26.90;91.20;;;;;;5124948;28;20033;-52
2022/04/05 06:00:21;;;;;;;28.50;25.60;;;26.90;91.20;;;;;;5124445;28;20100;-48
2022/04/05 06:03:01;;;;;;;26.77;24.13;;;26.90;91.10;;;;;;5124685;28;20034;-50
2022/04/05 06:05:29;;;;;;;25.95;23.45;;;26.90;91.00;;;;;;5124552;28;20034;-51
2022/04/05 06:07:56;;;;;;;26.25;23.65;;;26.90;90.90;;;;;;5124730;28;20022;-56
2022/04/05 06:10:23;;;;;;;26.63;23.85;;;26.90;90.90;;;;;;5124356;28;20047;-49
2022/04/05 06:12:51;;;;;;;27.27;24.48;;;26.90;90.90;;;;;;5124596;28;20083;-54
2022/04/05 06:15:19;;;;;;;27.67;24.92;;;26.90;91.00;;;;;;5124430;28;20023;-51
2022/04/05 06:17:48;;;;;;;27.15;23.77;;;26.90;91.00;;;;;;5124570;28;20030;-50
2022/04/05 06:20:16;;;;;;;26.58;23.77;;;26.90;91.00;;;;;;5124224;28;20074;-52
2022/04/05 06:22:45;;;;;;;25.48;22.98;;;26.90;91.20;;;;;;5124472;28;20173;-50
2022/04/05 06:25:16;;;;;;;26.75;24.05;;;26.90;91.00;;;;;;5124203;28;20020;-51
2022/04/05 06:27:43;;;;;;;26.15;23.45;;;26.90;91.20;;;;;;5124344;28;20026;-52
2022/04/05 06:30:11;;;;;;;27.40;24.77;;;26.90;91.30;;;;;;5124233;28;20039;-51
2022/04/05 06:32:37;;;;;;;27.17;24.63;;;26.80;91.30;;;;;;5124514;28;20024;-50
2022/04/05 06:35:06;;;;;;;26.80;23.63;;;26.80;91.30;;;;;;5124095;28;20015;-54
2022/04/05 06:37:33;;;;;;;26.58;24.00;;;26.80;91.50;;;;;;5128249;28;20020;-51
2022/04/05 06:40:00;;;;;;;25.58;23.35;;;26.80;91.50;;;;;;5128194;28;20086;-53
2022/04/05 06:42:27;;;;;;;27.17;24.58;;;26.80;91.50;;;;;;5128010;28;20025;-56
2022/04/05 06:44:53;;;;;;;26.98;24.40;;;26.80;91.60;;;;;;5128012;28;20027;-53
2022/04/05 06:47:20;;;;;;;26.75;24.38;;;26.80;91.60;;;;;;5128236;28;20227;-49
2022/04/05 06:49:47;;;;;;;27.73;25.15;;;26.70;91.60;;;;;;5127781;28;20019;-51
2022/04/05 06:52:14;;;;;;;26.55;24.17;;;26.70;91.50;;;;;;5128271;28;20023;-54
2022/04/05 06:54:41;;;;;;;26.70;23.98;;;26.70;91.40;;;;;;5128598;28;20097;-54
2022/04/05 06:57:08;;;;;;;26.85;24.35;;;26.70;91.20;;;;;;5127856;28;20096;-53
2022/04/05 06:59:35;;;;;;;25.77;23.27;;;26.70;91.30;;;;;;5127863;28;20193;-49
2022/04/05 07:02:01;;;;;;;25.23;22.48;;;26.70;91.00;;;;;;5128058;28;20039;-52
2022/04/05 07:04:29;;;;;;;25.73;23.25;;;26.70;91.10;;;;;;5127496;28;20034;-53
2022/04/05 07:06:56;;;;;;;25.35;22.70;;;26.70;90.90;;;;;;5127778;28;20050;-51
2022/04/05 07:09:23;;;;;;;25.98;23.35;;;26.70;90.90;;;;;;5127627;28;20019;-52
2022/04/05 07:11:49;;;;;;;25.35;22.88;;;26.60;90.80;;;;;;5127713;28;20022;-57
2022/04/05 07:14:16;;;;;;;24.95;22.70;;;26.70;90.80;;;;;;5127500;28;20027;-52
2022/04/05 07:16:43;;;;;;;24.77;22.33;;;26.70;90.70;;;;;;5127541;28;20031;-51
2022/04/05 07:19:09;;;;;;;28.20;23.27;;;26.70;90.70;;;;;;5127324;28;20078;-54
2022/04/05 07:21:36;;;;;;;25.33;22.92;;;26.70;90.60;;;;;;5127606;28;20046;-50
2022/04/05 07:24:03;;;;;;;26.23;23.50;;;26.70;90.70;;;;;;5127380;28;20032;-52
2022/04/05 07:26:29;;;;;;;26.98;24.27;;;26.70;90.70;;;;;;5127161;28;20034;-55
2022/04/05 07:28:56;;;;;;;27.05;24.33;;;26.70;90.80;;;;;;5127558;28;20212;-49
2022/04/05 07:31:22;;;;;;;26.58;23.85;;;26.70;90.90;;;;;;5127355;28;20319;-52
2022/04/05 07:33:49;;;;;;;26.73;24.10;;;26.70;91.00;;;;;;5127134;28;20046;-48
2022/04/05 07:36:16;;;;;;;27.73;24.92;;;26.70;91.10;;;;;;5127422;28;20024;-50
2022/04/05 07:38:42;;;;;;;27.10;24.52;;;26.70;91.20;;;;;;5126995;28;20023;-51
2022/04/05 07:41:09;;;;;;;25.70;23.33;;;26.70;91.30;;;;;;5127032;28;20227;-49
2022/04/05 07:43:35;;;;;;;27.20;24.38;;;26.70;91.30;;;;;;5127498;28;20254;-51
2022/04/05 07:46:02;;;;;;;25.35;22.90;;;26.70;91.30;;;;;;5126898;28;20028;-55
2022/04/05 07:48:29;;;;;;;25.98;23.48;;;26.80;91.40;;;;;;5126149;28;20020;-53
2022/04/05 07:50:57;;;;;;;28.10;25.35;;;26.70;91.50;;;;;;5126669;28;20386;-52
2022/04/05 07:53:24;;;;;;;27.95;25.33;;;26.70;91.50;;;;;;5127242;28;20080;-52
2022/04/05 07:55:51;;;;;;;27.75;25.13;;;26.70;91.60;;;;;;5126800;28;20132;-51
2022/04/05 07:58:17;;;;;;;27.38;24.67;;;26.70;91.60;;;;;;5127083;28;20055;-56
2022/04/05 08:00:44;;;;;;;27.75;24.92;;;26.70;91.60;;;;;;5126718;28;20054;-49
2022/04/05 08:03:11;;;;;;;28.33;25.42;;;26.70;91.70;;;;;;5127028;28;20041;-49
2022/04/05 08:05:41;;;;;;;27.60;24.90;;;26.70;91.70;;;;;;5126416;28;20020;-46
2022/04/05 08:08:08;;;;;;;29.00;25.90;;;26.70;91.80;;;;;;5126939;28;20022;-50
2022/04/05 08:10:35;;;;;;;27.83;25.30;;;26.70;91.80;;;;;;5126525;28;20068;-54
2022/04/05 08:13:02;;;;;;;29.00;25.85;;;26.70;91.90;;;;;;5126464;28;20055;-49
2022/04/05 08:15:29;;;;;;;28.38;25.50;;;26.70;91.90;;;;;;5126398;28;20212;-49
2022/04/05 08:17:57;;;;;;;28.15;25.25;;;26.60;91.90;;;;;;5126806;28;20019;-47
2022/04/05 08:20:24;;;;;;;29.02;26.25;;;26.70;91.90;;;;;;5126820;28;20387;-57
2022/04/05 08:22:51;;;;;;;29.73;26.80;;;26.60;91.80;;;;;;5126431;28;20023;-60
2022/04/05 08:25:18;;;;;;;29.30;26.73;;;26.60;91.80;;;;;;5126260;28;20315;-51
2022/04/05 08:27:47;;;;;;;29.15;26.27;;;26.60;91.80;;;;;;5126410;28;20034;-51
2022/04/05 08:30:17;;;;;;;30.10;27.20;;;26.60;91.80;;;;;;5126294;28;20230;-52
2022/04/05 08:32:45;;;;;;;30.08;27.15;;;26.60;91.90;;;;;;5126373;28;20304;-49
2022/04/05 08:35:14;;;;;;;28.95;26.23;;;26.60;91.90;;;;;;5125960;28;20023;-55
2022/04/05 08:37:41;;;;;;;29.30;26.35;;;26.60;91.80;;;;;;5126341;28;20020;-48
2022/04/05 08:40:10;;;;;;;28.90;26.30;;;26.60;91.80;;;;;;5125796;28;20083;-51
2022/04/05 08:42:41;;;;;;;28.58;25.90;;;26.60;91.80;;;;;;5125972;28;20330;-54
2022/04/05 08:45:10;;;;;;;29.13;26.23;;;26.60;91.80;;;;;;5125762;28;20023;-57
2022/04/05 08:47:41;;;;;;;28.17;25.58;;;26.60;91.80;;;;;;5125827;28;20039;-50
2022/04/05 08:50:08;;;;;;;28.25;25.63;;;26.60;91.70;;;;;;5125524;28;20043;-51
2022/04/05 08:52:35;;;;;;;28.00;25.30;;;26.60;91.70;;;;;;5125958;28;20015;-53
2022/04/05 08:55:03;;;;;;;35.65;25.73;;;26.60;91.70;;;;;;5125703;28;20020;-50
2022/04/05 08:57:29;;;;;;;29.30;26.52;;;26.60;91.80;;;;;;5125720;28;20087;-52
2022/04/05 08:59:56;;;;;;;28.27;25.67;;;26.60;91.80;;;;;;5125368;28;20024;-54
2022/04/05 09:02:26;;;;;;;28.58;25.98;;;26.60;91.80;;;;;;5125550;28;20027;-49
2022/04/05 09:04:53;;;;;;;29.17;26.50;;;26.60;91.80;;;;;;5125312;28;20091;-49
2022/04/05 09:07:23;;;;;;;28.92;26.00;;;26.60;91.70;;;;;;5125651;28;20026;-49
2022/04/05 09:10:07;;;;;;;27.95;25.35;;;26.60;91.70;;;;;;5125489;28;20218;-54
2022/04/05 09:12:41;;;;;;;27.88;24.98;;;26.60;91.70;;;;;;5125604;28;20042;-51
2022/04/05 09:15:17;;;;;;;27.73;25.13;;;26.60;91.60;;;;;;5125294;28;20015;-52
2022/04/05 09:17:46;;;;;;;27.88;25.27;;;26.50;91.70;;;;;;5125665;28;20021;-52
2022/04/05 09:20:14;;;;;;;27.92;25.52;;;26.50;91.70;;;;;;5125075;28;20019;-48
2022/04/05 09:22:41;;;;;;;28.73;25.70;;;26.60;91.80;;;;;;5125571;28;20050;-51
2022/04/05 09:25:14;;;;;;;28.30;25.55;;;26.60;91.90;;;;;;5125124;28;20019;-50
2022/04/05 09:27:51;;;;;;;27.85;25.20;;;26.50;91.90;;;;;;5125237;28;20226;-54
2022/04/05 09:30:22;;;;;;;29.25;26.77;;;26.50;91.90;;;;;;5124901;28;20058;-57
2022/04/05 09:32:51;;;;;;;31.20;27.88;;;26.60;91.90;;;;;;5125097;28;20046;-53
2022/04/05 09:35:20;;;;;;;28.55;25.83;;;26.60;92.00;;;;;;5124755;28;20212;-53
2022/04/05 09:37:48;;;;;;;28.92;26.38;;;26.50;92.00;;;;;;5125292;28;20011;-52
2022/04/05 09:40:32;;;;;;;29.85;27.05;;;26.50;92.00;;;;;;5124712;28;20039;-47
2022/04/05 09:43:07;;;;;;;30.17;27.33;;;26.50;92.00;;;;;;5124918;28;20035;-49
2022/04/05 09:45:45;;;;;;;28.98;26.20;;;26.50;92.10;;;;;;5124505;28;20095;-51
2022/04/05 09:48:13;;;;;;;30.25;27.45;;;26.50;92.10;;;;;;5124998;28;20083;-53
2022/04/05 09:51:02;;;;;;;29.88;27.10;;;26.50;92.20;;;;;;5124450;28;20335;-54
2022/04/05 09:53:39;;;;;;;30.38;27.35;;;26.50;92.20;;;;;;5124984;28;20024;-51
2022/04/05 09:56:07;;;;;;;29.83;27.05;;;26.50;92.30;;;;;;5124408;28;20043;-51
2022/04/05 09:58:35;;;;;;;30.83;27.88;;;26.50;92.20;;;;;;5124418;28;20035;-50
2022/04/05 10:01:10;;;;;;;30.27;27.33;;;26.50;92.30;;;;;;5124543;28;20057;-52
2022/04/05 10:03:39;;;;;;;31.50;28.35;;;26.50;92.30;;;;;;5124830;28;20027;-51
2022/04/05 10:06:06;;;;;;;30.92;27.55;;;26.50;92.40;;;;;;5124267;28;20015;-50
2022/04/05 10:08:35;;;;;;;30.38;27.23;;;26.50;92.40;;;;;;5124713;28;20028;-51
2022/04/05 10:11:02;;;;;;;30.63;27.48;;;26.50;92.40;;;;;;5123667;28;20016;-54
2022/04/05 10:13:29;;;;;;;31.10;28.17;;;26.50;92.40;;;;;;5124832;28;20043;-50
2022/04/05 10:15:57;;;;;;;31.05;27.80;;;26.50;92.40;;;;;;5124211;28;20087;-50
2022/04/05 10:18:25;;;;;;;31.92;28.63;;;26.50;92.40;;;;;;5124709;28;20304;-53
2022/04/05 10:20:52;;;;;;;31.55;28.38;;;26.50;92.30;;;;;;5124500;28;20197;-52
2022/04/05 10:23:21;;;;;;;31.13;27.98;;;26.50;92.30;;;;;;5124443;28;20296;-50
2022/04/05 10:25:52;;;;;;;31.05;28.30;;;26.50;92.20;;;;;;5124388;28;20047;-50
2022/04/05 10:28:24;;;;;;;30.40;27.15;;;26.50;92.20;;;;;;5124727;28;20077;-49
2022/04/05 10:31:21;;;;;;;33.20;30.00;;;26.50;92.20;;;;;;5123940;28;20028;-50
2022/04/05 10:34:07;;;;;;;31.73;28.35;;;26.50;92.10;;;;;;5123914;28;20051;-51
2022/04/05 10:36:34;;;;;;;31.00;27.95;;;26.50;92.10;;;;;;5124061;28;20036;-51
2022/04/05 10:39:13;;;;;;;31.38;27.95;;;26.50;92.10;;;;;;5124021;28;20020;-50
2022/04/05 10:41:40;;;;;;;31.08;27.92;;;26.50;92.10;;;;;;5123941;28;20027;-48
2022/04/05 10:44:22;;;;;;;31.73;28.48;;;26.50;92.10;;;;;;5124090;28;20031;-52
2022/04/05 10:46:58;;;;;;;31.05;27.75;;;26.50;92.10;;;;;;5123867;28;20020;-51
2022/04/05 10:49:44;;;;;;;30.58;27.42;;;26.50;92.10;;;;;;5123935;28;20028;-51
2022/04/05 10:52:15;;;;;;;32.03;28.52;;;26.50;92.00;;;;;;5124066;28;20100;-51
2022/04/05 10:54:50;;;;;;;31.88;28.58;;;26.50;92.10;;;;;;5123971;28;20316;-53
2022/04/05 10:57:27;;;;;;;31.02;27.85;;;26.40;92.00;;;;;;5124226;28;20031;-56
2022/04/05 11:00:07;;;;;;;36.20;29.02;;;26.50;92.00;;;;;;5123810;28;20030;-55
2022/04/05 11:03:01;;;;;;;31.95;28.85;;;26.50;92.00;;;;;;5124204;28;20030;-53
2022/04/05 11:05:41;;;;;;;32.17;28.70;;;26.50;91.90;;;;;;5123914;28;20165;-53
2022/04/05 11:08:14;;;;;;;32.15;29.10;;;26.40;91.70;;;;;;5124128;28;20024;-50
2022/04/05 11:10:40;;;;;;;32.60;29.38;;;26.40;91.70;;;;;;5123663;28;20027;-55
2022/04/05 11:13:08;;;;;;;30.15;27.35;;;26.50;91.70;;;;;;5124366;28;20024;-54
2022/04/05 11:15:48;;;;;;;30.85;27.73;;;26.50;91.60;;;;;;5123708;28;20031;-51
2022/04/05 11:18:19;;;;;;;32.53;29.35;;;26.50;91.50;;;;;;5124084;28;20023;-51
2022/04/05 11:20:47;;;;;;;30.23;26.95;;;26.50;91.40;;;;;;5123797;28;20020;-56
2022/04/05 11:23:18;;;;;;;31.40;28.15;;;26.50;91.40;;;;;;5126964;28;20049;-49
2022/04/05 11:25:46;;;;;;;31.05;28.13;;;26.50;91.30;;;;;;5127656;28;20046;-53
2022/04/05 11:28:21;;;;;;;31.73;28.55;;;26.50;91.20;;;;;;5127778;28;20060;-54
2022/04/05 11:31:00;;;;;;;32.10;29.00;;;26.50;91.20;;;;;;5127052;28;20020;-52
2022/04/05 11:33:32;;;;;;;34.10;30.58;;;26.50;91.20;;;;;;5127668;28;20045;-53
2022/04/05 11:36:01;;;;;;;33.90;30.42;;;26.60;91.20;;;;;;5127017;28;20137;-53
2022/04/05 11:38:29;;;;;;;33.13;29.77;;;26.60;91.10;;;;;;5127420;28;20270;-52
2022/04/05 11:41:06;;;;;;;33.25;30.08;;;26.60;91.00;;;;;;5126952;28;20102;-52
2022/04/05 11:43:45;;;;;;;37.58;33.83;;;26.60;91.10;;;;;;5127318;28;20035;-55
2022/04/05 11:46:16;;;;;;;39.17;35.00;;;26.60;91.00;;;;;;5126978;28;20046;-50
2022/04/05 11:48:43;;;;;;;38.08;34.42;;;26.60;91.00;;;;;;5126915;28;20242;-52
2022/04/05 11:51:13;;;;;;;39.88;33.50;;;26.60;91.10;;;;;;5126643;28;20293;-50
2022/04/05 11:53:41;;;;;;;36.55;32.95;;;26.60;91.20;;;;;;5126659;28;20035;-48
2022/04/05 11:56:27;;;;;;;36.13;32.58;;;26.60;91.30;;;;;;5126610;28;20315;-54
2022/04/05 11:58:59;;;;;;;36.67;32.78;;;26.70;91.30;;;;;;5126709;28;20256;-52
2022/04/05 12:01:34;;;;;;;36.13;32.58;;;26.70;91.30;;;;;;5126622;28;20061;-49
2022/04/05 12:04:06;;;;;;;34.08;30.48;;;26.70;91.40;;;;;;5126395;28;20193;-54
2022/04/05 12:06:34;;;;;;;35.25;31.83;;;26.70;91.40;;;;;;5126278;28;20020;-50
2022/04/05 12:09:03;;;;;;;34.97;31.58;;;26.80;91.50;;;;;;5126429;28;20028;-53
2022/04/05 12:11:32;;;;;;;34.90;31.40;;;26.80;91.50;;;;;;5126270;28;20314;-49
2022/04/05 12:14:00;;;;;;;34.03;30.17;;;26.80;91.50;;;;;;5126323;28;20038;-50
2022/04/05 12:16:50;;;;;;;34.10;30.60;;;26.80;91.50;;;;;;5126211;28;20045;-47
2022/04/05 12:19:30;;;;;;;34.28;30.92;;;26.90;91.50;;;;;;5125801;28;20034;-50
2022/04/05 12:22:00;;;;;;;33.90;30.60;;;26.90;91.50;;;;;;5126455;28;20027;-50
2022/04/05 12:24:28;;;;;;;35.90;32.33;;;26.90;91.50;;;;;;5125938;28;20032;-52
2022/04/05 12:26:59;;;;;;;34.55;31.10;;;26.90;91.60;;;;;;5126060;28;20015;-53
2022/04/05 12:29:30;;;;;;;34.83;31.38;;;26.90;91.60;;;;;;5126040;28;20023;-57
2022/04/05 12:32:11;;;;;;;33.75;30.50;;;26.90;91.60;;;;;;5126258;28;20023;-49
2022/04/05 12:34:38;;;;;;;33.40;30.08;;;26.90;91.60;;;;;;5125262;28;20031;-51